sensor_id;sensor_type;location;lat;lon;timestamp;temperature;humidity
72206;DHT22;60111;48.286;7.812;2022-11-02T00:00:50;10.50;99.90
72206;DHT22;60111;48.286;7.812;2022-11-02T00:03:23;10.60;99.90
72206;DHT22;60111;48.286;7.812;2022-11-02T00:05:56;10.80;99.90
72206;DHT22;60111;48.286;7.812;2022-11-02T00:08:28;10.80;99.90
72206;DHT22;60111;48.286;7.812;2022-11-02T00:11:01;10.90;99.90
72206;DHT22;60111;48.286;7.812;2022-11-02T00:13:33;10.90;99.90
72206;DHT22;60111;48.286;7.812;2022-11-02T00:16:09;11.00;99.90
72206;DHT22;60111;48.286;7.812;2022-11-02T00:18:44;11.00;99.90
72206;DHT22;60111;48.286;7.812;2022-11-02T00:21:19;11.10;99.90
72206;DHT22;60111;48.286;7.812;2022-11-02T00:23:54;11.10;99.90
72206;DHT22;60111;48.286;7.812;2022-11-02T00:26:28;11.10;99.90
72206;DHT22;60111;48.286;7.812;2022-11-02T00:29:01;11.20;99.90
72206;DHT22;60111;48.286;7.812;2022-11-02T00:31:33;11.20;99.90
72206;DHT22;60111;48.286;7.812;2022-11-02T00:34:06;11.20;99.90
72206;DHT22;60111;48.286;7.812;2022-11-02T00:36:38;11.20;99.90
72206;DHT22;60111;48.286;7.812;2022-11-02T00:39:11;11.20;99.90
72206;DHT22;60111;48.286;7.812;2022-11-02T00:41:44;11.30;99.90
72206;DHT22;60111;48.286;7.812;2022-11-02T00:44:16;11.30;99.90
72206;DHT22;60111;48.286;7.812;2022-11-02T00:46:49;11.40;99.90
72206;DHT22;60111;48.286;7.812;2022-11-02T00:49:27;11.60;99.90
72206;DHT22;60111;48.286;7.812;2022-11-02T00:51:55;11.70;99.90
72206;DHT22;60111;48.286;7.812;2022-11-02T00:54:28;11.60;99.90
72206;DHT22;60111;48.286;7.812;2022-11-02T00:57:01;11.60;99.90
72206;DHT22;60111;48.286;7.812;2022-11-02T00:59:34;11.60;99.90
72206;DHT22;60111;48.286;7.812;2022-11-02T01:02:06;11.50;99.90
72206;DHT22;60111;48.286;7.812;2022-11-02T01:04:39;11.50;99.90
72206;DHT22;60111;48.286;7.812;2022-11-02T01:07:12;11.50;99.90
72206;DHT22;60111;48.286;7.812;2022-11-02T01:09:44;11.60;99.90
72206;DHT22;60111;48.286;7.812;2022-11-02T01:12:17;11.70;99.90
72206;DHT22;60111;48.286;7.812;2022-11-02T01:14:49;11.70;99.90
72206;DHT22;60111;48.286;7.812;2022-11-02T01:17:22;11.80;99.90
72206;DHT22;60111;48.286;7.812;2022-11-02T01:19:55;11.70;99.90
72206;DHT22;60111;48.286;7.812;2022-11-02T01:22:29;11.60;99.90
72206;DHT22;60111;48.286;7.812;2022-11-02T01:25:03;11.60;99.90
72206;DHT22;60111;48.286;7.812;2022-11-02T01:27:36;11.50;99.90
72206;DHT22;60111;48.286;7.812;2022-11-02T01:30:09;11.40;99.90
72206;DHT22;60111;48.286;7.812;2022-11-02T01:32:42;11.40;99.90
72206;DHT22;60111;48.286;7.812;2022-11-02T01:35:14;11.40;99.90
72206;DHT22;60111;48.286;7.812;2022-11-02T01:37:47;11.40;99.90
72206;DHT22;60111;48.286;7.812;2022-11-02T01:40:20;11.50;99.90
72206;DHT22;60111;48.286;7.812;2022-11-02T01:42:52;11.50;99.90
72206;DHT22;60111;48.286;7.812;2022-11-02T01:45:25;11.50;99.90
72206;DHT22;60111;48.286;7.812;2022-11-02T01:47:58;11.50;99.90
72206;DHT22;60111;48.286;7.812;2022-11-02T01:50:31;11.40;99.90
72206;DHT22;60111;48.286;7.812;2022-11-02T01:53:04;11.40;99.90
72206;DHT22;60111;48.286;7.812;2022-11-02T01:55:38;11.40;99.90
72206;DHT22;60111;48.286;7.812;2022-11-02T01:58:13;11.30;99.90
72206;DHT22;60111;48.286;7.812;2022-11-02T02:00:49;11.20;99.90
72206;DHT22;60111;48.286;7.812;2022-11-02T02:03:22;11.20;99.90
72206;DHT22;60111;48.286;7.812;2022-11-02T02:06:06;11.10;99.90
72206;DHT22;60111;48.286;7.812;2022-11-02T02:08:42;11.00;99.90
72206;DHT22;60111;48.286;7.812;2022-11-02T02:11:26;10.90;99.90
72206;DHT22;60111;48.286;7.812;2022-11-02T02:14:07;10.80;99.90
72206;DHT22;60111;48.286;7.812;2022-11-02T02:17:08;10.80;99.90
72206;DHT22;60111;48.286;7.812;2022-11-02T02:23:04;10.70;99.90
72206;DHT22;60111;48.286;7.812;2022-11-02T02:25:42;10.60;99.90
72206;DHT22;60111;48.286;7.812;2022-11-02T02:34:14;10.60;99.90
72206;DHT22;60111;48.286;7.812;2022-11-02T02:36:58;10.60;99.90
72206;DHT22;60111;48.286;7.812;2022-11-02T02:39:46;10.70;99.90
72206;DHT22;60111;48.286;7.812;2022-11-02T02:42:19;10.60;99.90
72206;DHT22;60111;48.286;7.812;2022-11-02T02:47:50;10.60;99.90
72206;DHT22;60111;48.286;7.812;2022-11-02T02:50:25;10.60;99.90
72206;DHT22;60111;48.286;7.812;2022-11-02T02:52:58;10.50;99.90
72206;DHT22;60111;48.286;7.812;2022-11-02T02:55:36;10.50;99.90
72206;DHT22;60111;48.286;7.812;2022-11-02T02:58:14;10.50;99.90
72206;DHT22;60111;48.286;7.812;2022-11-02T03:00:47;10.50;99.90
72206;DHT22;60111;48.286;7.812;2022-11-02T03:03:24;10.50;99.90
72206;DHT22;60111;48.286;7.812;2022-11-02T03:08:46;10.50;99.90
72206;DHT22;60111;48.286;7.812;2022-11-02T03:11:19;10.50;99.90
72206;DHT22;60111;48.286;7.812;2022-11-02T03:14:05;10.40;99.90
72206;DHT22;60111;48.286;7.812;2022-11-02T03:16:49;10.40;99.90
72206;DHT22;60111;48.286;7.812;2022-11-02T03:19:34;10.40;99.90
72206;DHT22;60111;48.286;7.812;2022-11-02T03:22:11;10.40;99.90
72206;DHT22;60111;48.286;7.812;2022-11-02T03:24:58;10.30;99.90
72206;DHT22;60111;48.286;7.812;2022-11-02T03:27:46;10.30;99.90
72206;DHT22;60111;48.286;7.812;2022-11-02T03:30:21;10.20;99.90
72206;DHT22;60111;48.286;7.812;2022-11-02T03:36:26;10.20;99.90
72206;DHT22;60111;48.286;7.812;2022-11-02T03:38:27;10.30;99.90
72206;DHT22;60111;48.286;7.812;2022-11-02T03:40:57;10.30;99.90
72206;DHT22;60111;48.286;7.812;2022-11-02T03:43:33;10.30;99.90
72206;DHT22;60111;48.286;7.812;2022-11-02T03:46:08;10.40;99.90
72206;DHT22;60111;48.286;7.812;2022-11-02T03:48:48;10.50;99.90
72206;DHT22;60111;48.286;7.812;2022-11-02T03:51:23;10.70;99.90
72206;DHT22;60111;48.286;7.812;2022-11-02T03:54:05;10.80;99.90
72206;DHT22;60111;48.286;7.812;2022-11-02T03:56:45;10.80;99.90
72206;DHT22;60111;48.286;7.812;2022-11-02T03:59:19;10.80;99.90
72206;DHT22;60111;48.286;7.812;2022-11-02T04:01:52;10.70;99.90
72206;DHT22;60111;48.286;7.812;2022-11-02T04:04:25;10.70;99.90
72206;DHT22;60111;48.286;7.812;2022-11-02T04:06:57;10.70;99.90
72206;DHT22;60111;48.286;7.812;2022-11-02T04:09:30;10.70;99.90
72206;DHT22;60111;48.286;7.812;2022-11-02T04:12:02;10.70;99.90
72206;DHT22;60111;48.286;7.812;2022-11-02T04:14:53;10.70;99.90
72206;DHT22;60111;48.286;7.812;2022-11-02T04:17:25;10.70;99.90
72206;DHT22;60111;48.286;7.812;2022-11-02T04:20:16;10.80;99.90
72206;DHT22;60111;48.286;7.812;2022-11-02T04:22:49;10.90;99.90
72206;DHT22;60111;48.286;7.812;2022-11-02T04:25:40;11.00;99.90
72206;DHT22;60111;48.286;7.812;2022-11-02T04:28:17;11.10;99.90
72206;DHT22;60111;48.286;7.812;2022-11-02T04:30:46;11.10;99.90
72206;DHT22;60111;48.286;7.812;2022-11-02T04:33:20;11.20;99.90
72206;DHT22;60111;48.286;7.812;2022-11-02T04:36:06;11.30;99.90
72206;DHT22;60111;48.286;7.812;2022-11-02T04:38:38;11.20;99.90
72206;DHT22;60111;48.286;7.812;2022-11-02T04:41:16;11.30;99.90
72206;DHT22;60111;48.286;7.812;2022-11-02T04:44:13;11.20;99.90
72206;DHT22;60111;48.286;7.812;2022-11-02T04:46:42;11.20;99.90
72206;DHT22;60111;48.286;7.812;2022-11-02T04:49:15;11.20;99.90
72206;DHT22;60111;48.286;7.812;2022-11-02T04:51:50;11.20;99.90
72206;DHT22;60111;48.286;7.812;2022-11-02T04:54:22;11.20;99.90
72206;DHT22;60111;48.286;7.812;2022-11-02T04:56:55;11.20;99.90
72206;DHT22;60111;48.286;7.812;2022-11-02T04:59:27;11.20;99.90
72206;DHT22;60111;48.286;7.812;2022-11-02T05:02:00;11.20;99.90
72206;DHT22;60111;48.286;7.812;2022-11-02T05:04:32;11.20;99.90
72206;DHT22;60111;48.286;7.812;2022-11-02T05:07:07;11.20;99.90
72206;DHT22;60111;48.286;7.812;2022-11-02T05:09:39;11.30;99.90
72206;DHT22;60111;48.286;7.812;2022-11-02T05:12:15;11.30;99.90
72206;DHT22;60111;48.286;7.812;2022-11-02T05:14:50;11.30;99.90
72206;DHT22;60111;48.286;7.812;2022-11-02T05:17:22;11.30;99.90
72206;DHT22;60111;48.286;7.812;2022-11-02T05:19:55;11.40;99.90
72206;DHT22;60111;48.286;7.812;2022-11-02T05:22:27;11.40;99.90
72206;DHT22;60111;48.286;7.812;2022-11-02T05:25:00;11.50;99.90
72206;DHT22;60111;48.286;7.812;2022-11-02T05:27:33;11.60;99.90
72206;DHT22;60111;48.286;7.812;2022-11-02T05:30:06;11.60;99.90
72206;DHT22;60111;48.286;7.812;2022-11-02T05:32:39;11.70;99.90
72206;DHT22;60111;48.286;7.812;2022-11-02T05:35:11;11.80;99.90
72206;DHT22;60111;48.286;7.812;2022-11-02T05:37:44;11.80;99.90
72206;DHT22;60111;48.286;7.812;2022-11-02T05:40:16;11.90;99.90
72206;DHT22;60111;48.286;7.812;2022-11-02T05:42:50;11.80;99.90
72206;DHT22;60111;48.286;7.812;2022-11-02T05:45:22;11.80;99.90
72206;DHT22;60111;48.286;7.812;2022-11-02T05:47:55;11.70;99.90
72206;DHT22;60111;48.286;7.812;2022-11-02T05:50:33;11.60;99.90
72206;DHT22;60111;48.286;7.812;2022-11-02T05:53:02;11.50;99.90
72206;DHT22;60111;48.286;7.812;2022-11-02T05:55:34;11.50;99.90
72206;DHT22;60111;48.286;7.812;2022-11-02T05:58:10;11.40;99.90
72206;DHT22;60111;48.286;7.812;2022-11-02T06:00:42;11.40;99.90
72206;DHT22;60111;48.286;7.812;2022-11-02T06:03:15;11.40;99.90
72206;DHT22;60111;48.286;7.812;2022-11-02T06:05:59;11.40;99.90
72206;DHT22;60111;48.286;7.812;2022-11-02T06:08:36;11.40;99.90
72206;DHT22;60111;48.286;7.812;2022-11-02T06:11:13;11.40;99.90
72206;DHT22;60111;48.286;7.812;2022-11-02T06:13:48;11.60;99.90
72206;DHT22;60111;48.286;7.812;2022-11-02T06:16:21;11.60;99.90
72206;DHT22;60111;48.286;7.812;2022-11-02T06:18:54;11.80;99.90
72206;DHT22;60111;48.286;7.812;2022-11-02T06:21:26;11.70;99.90
72206;DHT22;60111;48.286;7.812;2022-11-02T06:23:59;11.70;99.90
72206;DHT22;60111;48.286;7.812;2022-11-02T06:26:32;11.70;99.90
72206;DHT22;60111;48.286;7.812;2022-11-02T06:29:04;11.60;99.90
72206;DHT22;60111;48.286;7.812;2022-11-02T06:31:37;11.60;99.90
72206;DHT22;60111;48.286;7.812;2022-11-02T06:34:10;11.60;99.90
72206;DHT22;60111;48.286;7.812;2022-11-02T06:36:42;11.60;99.90
72206;DHT22;60111;48.286;7.812;2022-11-02T06:39:15;11.60;99.90
72206;DHT22;60111;48.286;7.812;2022-11-02T06:41:47;11.50;99.90
72206;DHT22;60111;48.286;7.812;2022-11-02T06:44:20;11.60;99.90
72206;DHT22;60111;48.286;7.812;2022-11-02T06:46:52;11.60;99.90
72206;DHT22;60111;48.286;7.812;2022-11-02T06:49:25;11.50;99.90
72206;DHT22;60111;48.286;7.812;2022-11-02T06:51:58;11.60;99.90
72206;DHT22;60111;48.286;7.812;2022-11-02T06:54:30;11.70;99.90
72206;DHT22;60111;48.286;7.812;2022-11-02T06:57:03;11.70;99.90
72206;DHT22;60111;48.286;7.812;2022-11-02T06:59:35;11.70;99.90
72206;DHT22;60111;48.286;7.812;2022-11-02T07:02:08;11.70;99.90
72206;DHT22;60111;48.286;7.812;2022-11-02T07:04:41;11.70;99.90
72206;DHT22;60111;48.286;7.812;2022-11-02T07:07:14;11.70;99.90
72206;DHT22;60111;48.286;7.812;2022-11-02T07:09:46;11.70;99.90
72206;DHT22;60111;48.286;7.812;2022-11-02T07:12:20;11.80;99.90
72206;DHT22;60111;48.286;7.812;2022-11-02T07:14:53;11.80;99.90
72206;DHT22;60111;48.286;7.812;2022-11-02T07:17:25;11.80;99.90
72206;DHT22;60111;48.286;7.812;2022-11-02T07:19:58;11.90;99.90
72206;DHT22;60111;48.286;7.812;2022-11-02T07:22:30;12.00;99.90
72206;DHT22;60111;48.286;7.812;2022-11-02T07:25:03;12.00;99.90
72206;DHT22;60111;48.286;7.812;2022-11-02T07:27:40;12.10;99.90
72206;DHT22;60111;48.286;7.812;2022-11-02T07:30:12;12.10;99.90
72206;DHT22;60111;48.286;7.812;2022-11-02T07:32:45;12.20;99.90
72206;DHT22;60111;48.286;7.812;2022-11-02T07:35:18;12.20;99.90
72206;DHT22;60111;48.286;7.812;2022-11-02T07:38:05;12.40;99.90
72206;DHT22;60111;48.286;7.812;2022-11-02T07:40:38;12.40;99.90
72206;DHT22;60111;48.286;7.812;2022-11-02T07:43:10;12.50;99.90
72206;DHT22;60111;48.286;7.812;2022-11-02T07:45:43;12.50;99.90
72206;DHT22;60111;48.286;7.812;2022-11-02T07:48:15;12.60;99.90
72206;DHT22;60111;48.286;7.812;2022-11-02T07:50:48;12.70;99.90
72206;DHT22;60111;48.286;7.812;2022-11-02T07:53:21;12.80;99.90
72206;DHT22;60111;48.286;7.812;2022-11-02T07:55:53;12.90;99.90
72206;DHT22;60111;48.286;7.812;2022-11-02T07:58:26;13.00;99.90
72206;DHT22;60111;48.286;7.812;2022-11-02T08:00:59;13.20;99.90
72206;DHT22;60111;48.286;7.812;2022-11-02T08:03:32;13.30;99.90
72206;DHT22;60111;48.286;7.812;2022-11-02T08:06:05;13.40;99.90
72206;DHT22;60111;48.286;7.812;2022-11-02T08:08:38;13.50;99.90
72206;DHT22;60111;48.286;7.812;2022-11-02T08:11:10;13.70;99.90
72206;DHT22;60111;48.286;7.812;2022-11-02T08:13:43;13.80;99.90
72206;DHT22;60111;48.286;7.812;2022-11-02T08:16:16;13.80;99.90
72206;DHT22;60111;48.286;7.812;2022-11-02T08:18:48;13.80;99.90
72206;DHT22;60111;48.286;7.812;2022-11-02T08:21:21;13.90;99.90
72206;DHT22;60111;48.286;7.812;2022-11-02T08:23:53;14.00;99.90
72206;DHT22;60111;48.286;7.812;2022-11-02T08:26:26;14.10;99.90
72206;DHT22;60111;48.286;7.812;2022-11-02T08:28:58;14.20;99.90
72206;DHT22;60111;48.286;7.812;2022-11-02T08:31:31;14.20;99.90
72206;DHT22;60111;48.286;7.812;2022-11-02T08:34:03;14.30;99.90
72206;DHT22;60111;48.286;7.812;2022-11-02T08:36:36;14.20;99.90
72206;DHT22;60111;48.286;7.812;2022-11-02T08:39:09;14.20;99.90
72206;DHT22;60111;48.286;7.812;2022-11-02T08:41:42;14.20;99.90
72206;DHT22;60111;48.286;7.812;2022-11-02T08:44:14;14.20;99.90
72206;DHT22;60111;48.286;7.812;2022-11-02T08:46:47;14.20;99.90
72206;DHT22;60111;48.286;7.812;2022-11-02T08:49:20;14.30;99.90
72206;DHT22;60111;48.286;7.812;2022-11-02T08:51:53;14.20;99.90
72206;DHT22;60111;48.286;7.812;2022-11-02T08:54:26;14.30;99.90
72206;DHT22;60111;48.286;7.812;2022-11-02T08:56:58;14.40;99.90
72206;DHT22;60111;48.286;7.812;2022-11-02T08:59:31;14.40;99.90
72206;DHT22;60111;48.286;7.812;2022-11-02T09:02:03;14.40;99.90
72206;DHT22;60111;48.286;7.812;2022-11-02T09:04:36;14.50;99.90
72206;DHT22;60111;48.286;7.812;2022-11-02T09:07:08;14.40;99.90
72206;DHT22;60111;48.286;7.812;2022-11-02T09:09:41;14.40;99.90
72206;DHT22;60111;48.286;7.812;2022-11-02T09:12:14;14.40;99.90
72206;DHT22;60111;48.286;7.812;2022-11-02T09:14:46;14.40;99.90
72206;DHT22;60111;48.286;7.812;2022-11-02T09:17:19;14.50;99.90
72206;DHT22;60111;48.286;7.812;2022-11-02T09:19:52;14.60;99.90
72206;DHT22;60111;48.286;7.812;2022-11-02T09:22:24;14.60;99.90
72206;DHT22;60111;48.286;7.812;2022-11-02T09:24:57;14.60;99.90
72206;DHT22;60111;48.286;7.812;2022-11-02T09:27:29;14.70;99.90
72206;DHT22;60111;48.286;7.812;2022-11-02T09:30:02;14.80;99.90
72206;DHT22;60111;48.286;7.812;2022-11-02T09:32:35;14.80;99.90
72206;DHT22;60111;48.286;7.812;2022-11-02T09:35:10;14.90;99.90
72206;DHT22;60111;48.286;7.812;2022-11-02T09:37:43;15.00;99.90
72206;DHT22;60111;48.286;7.812;2022-11-02T09:40:21;15.10;99.90
72206;DHT22;60111;48.286;7.812;2022-11-02T09:45:51;15.20;99.90
72206;DHT22;60111;48.286;7.812;2022-11-02T09:48:38;15.20;99.90
72206;DHT22;60111;48.286;7.812;2022-11-02T09:51:19;15.30;99.90
72206;DHT22;60111;48.286;7.812;2022-11-02T09:53:56;15.40;99.90
72206;DHT22;60111;48.286;7.812;2022-11-02T09:56:29;15.40;99.90
72206;DHT22;60111;48.286;7.812;2022-11-02T09:59:05;15.40;99.90
72206;DHT22;60111;48.286;7.812;2022-11-02T10:07:58;15.80;99.90
72206;DHT22;60111;48.286;7.812;2022-11-02T10:16:30;15.90;99.90
72206;DHT22;60111;48.286;7.812;2022-11-02T10:19:07;15.90;99.90
72206;DHT22;60111;48.286;7.812;2022-11-02T10:21:40;16.10;99.90
72206;DHT22;60111;48.286;7.812;2022-11-02T10:24:22;16.20;99.90
72206;DHT22;60111;48.286;7.812;2022-11-02T10:27:00;16.40;99.90
72206;DHT22;60111;48.286;7.812;2022-11-02T10:29:58;16.60;99.90
72206;DHT22;60111;48.286;7.812;2022-11-02T10:32:35;16.70;99.90
72206;DHT22;60111;48.286;7.812;2022-11-02T10:35:23;16.80;99.90
72206;DHT22;60111;48.286;7.812;2022-11-02T10:43:23;17.10;99.90
72206;DHT22;60111;48.286;7.812;2022-11-02T10:51:42;17.40;99.90
72206;DHT22;60111;48.286;7.812;2022-11-02T10:54:15;17.50;99.90
72206;DHT22;60111;48.286;7.812;2022-11-02T10:56:48;17.50;99.90
72206;DHT22;60111;48.286;7.812;2022-11-02T10:59:22;17.50;99.90
72206;DHT22;60111;48.286;7.812;2022-11-02T11:04:34;17.60;99.70
72206;DHT22;60111;48.286;7.812;2022-11-02T11:09:49;17.60;99.90
72206;DHT22;60111;48.286;7.812;2022-11-02T11:12:36;17.80;99.90
72206;DHT22;60111;48.286;7.812;2022-11-02T11:15:14;17.90;98.90
72206;DHT22;60111;48.286;7.812;2022-11-02T11:17:41;17.70;98.80
72206;DHT22;60111;48.286;7.812;2022-11-02T11:20:31;17.60;99.90
72206;DHT22;60111;48.286;7.812;2022-11-02T11:25:42;18.00;99.90
72206;DHT22;60111;48.286;7.812;2022-11-02T11:28:28;18.20;98.80
72206;DHT22;60111;48.286;7.812;2022-11-02T11:31:04;18.50;98.70
72206;DHT22;60111;48.286;7.812;2022-11-02T11:33:51;18.80;97.70
72206;DHT22;60111;48.286;7.812;2022-11-02T11:36:27;18.80;98.00
72206;DHT22;60111;48.286;7.812;2022-11-02T11:39:04;18.70;97.00
72206;DHT22;60111;48.286;7.812;2022-11-02T11:41:38;18.50;97.90
72206;DHT22;60111;48.286;7.812;2022-11-02T11:44:13;18.40;98.10
72206;DHT22;60111;48.286;7.812;2022-11-02T11:46:47;18.60;98.90
72206;DHT22;60111;48.286;7.812;2022-11-02T11:49:35;18.90;97.50
72206;DHT22;60111;48.286;7.812;2022-11-02T11:52:00;18.90;97.30
72206;DHT22;60111;48.286;7.812;2022-11-02T11:54:33;18.90;96.20
72206;DHT22;60111;48.286;7.812;2022-11-02T11:57:28;18.50;96.90
72206;DHT22;60111;48.286;7.812;2022-11-02T12:00:24;18.20;97.70
72206;DHT22;60111;48.286;7.812;2022-11-02T12:02:37;17.90;99.90
72206;DHT22;60111;48.286;7.812;2022-11-02T12:05:14;17.70;99.90
72206;DHT22;60111;48.286;7.812;2022-11-02T12:07:59;17.60;98.90
72206;DHT22;60111;48.286;7.812;2022-11-02T12:10:35;17.50;99.90
72206;DHT22;60111;48.286;7.812;2022-11-02T12:13:37;17.40;99.90
72206;DHT22;60111;48.286;7.812;2022-11-02T12:27:23;17.30;99.90
72206;DHT22;60111;48.286;7.812;2022-11-02T12:32:40;17.30;99.90
72206;DHT22;60111;48.286;7.812;2022-11-02T12:47:05;17.50;99.60
72206;DHT22;60111;48.286;7.812;2022-11-02T12:50:00;17.70;99.80
72206;DHT22;60111;48.286;7.812;2022-11-02T12:55:20;17.60;99.30
72206;DHT22;60111;48.286;7.812;2022-11-02T12:57:51;17.50;98.30
72206;DHT22;60111;48.286;7.812;2022-11-02T13:00:26;17.40;98.10
72206;DHT22;60111;48.286;7.812;2022-11-02T13:03:30;17.40;98.40
72206;DHT22;60111;48.286;7.812;2022-11-02T13:06:04;17.50;98.70
72206;DHT22;60111;48.286;7.812;2022-11-02T13:08:48;17.50;97.60
72206;DHT22;60111;48.286;7.812;2022-11-02T13:11:27;17.40;98.70
72206;DHT22;60111;48.286;7.812;2022-11-02T13:13:59;17.50;98.60
72206;DHT22;60111;48.286;7.812;2022-11-02T13:16:46;17.60;99.00
72206;DHT22;60111;48.286;7.812;2022-11-02T13:19:20;17.70;98.30
72206;DHT22;60111;48.286;7.812;2022-11-02T13:21:55;17.70;97.60
72206;DHT22;60111;48.286;7.812;2022-11-02T13:24:41;17.70;97.40
72206;DHT22;60111;48.286;7.812;2022-11-02T13:27:26;17.60;97.90
72206;DHT22;60111;48.286;7.812;2022-11-02T13:30:00;17.50;98.00
72206;DHT22;60111;48.286;7.812;2022-11-02T13:32:44;17.60;98.30
72206;DHT22;60111;48.286;7.812;2022-11-02T13:35:37;17.80;97.50
72206;DHT22;60111;48.286;7.812;2022-11-02T13:38:20;18.00;97.30
72206;DHT22;60111;48.286;7.812;2022-11-02T13:41:03;18.20;96.50
72206;DHT22;60111;48.286;7.812;2022-11-02T13:49:31;18.60;96.20
72206;DHT22;60111;48.286;7.812;2022-11-02T13:52:09;18.60;95.20
72206;DHT22;60111;48.286;7.812;2022-11-02T13:54:48;18.40;95.60
72206;DHT22;60111;48.286;7.812;2022-11-02T13:57:29;18.20;96.40
72206;DHT22;60111;48.286;7.812;2022-11-02T14:00:02;18.10;96.50
72206;DHT22;60111;48.286;7.812;2022-11-02T14:02:38;18.00;96.70
72206;DHT22;60111;48.286;7.812;2022-11-02T14:05:28;18.10;95.80
72206;DHT22;60111;48.286;7.812;2022-11-02T14:07:46;18.20;95.80
72206;DHT22;60111;48.286;7.812;2022-11-02T14:10:21;18.20;96.40
72206;DHT22;60111;48.286;7.812;2022-11-02T14:12:54;18.30;96.00
72206;DHT22;60111;48.286;7.812;2022-11-02T14:15:37;18.50;95.60
72206;DHT22;60111;48.286;7.812;2022-11-02T14:18:14;18.40;94.80
72206;DHT22;60111;48.286;7.812;2022-11-02T14:20:47;18.30;95.40
72206;DHT22;60111;48.286;7.812;2022-11-02T14:23:35;18.20;95.30
72206;DHT22;60111;48.286;7.812;2022-11-02T14:26:28;18.20;96.20
72206;DHT22;60111;48.286;7.812;2022-11-02T14:28:43;18.20;95.80
72206;DHT22;60111;48.286;7.812;2022-11-02T14:35:16;18.20;96.10
72206;DHT22;60111;48.286;7.812;2022-11-02T14:45:51;18.30;95.80
72206;DHT22;60111;48.286;7.812;2022-11-02T14:48:22;18.40;95.60
72206;DHT22;60111;48.286;7.812;2022-11-02T14:51:05;18.40;95.00
72206;DHT22;60111;48.286;7.812;2022-11-02T14:53:38;18.40;95.60
72206;DHT22;60111;48.286;7.812;2022-11-02T14:56:12;18.30;96.20
72206;DHT22;60111;48.286;7.812;2022-11-02T14:58:50;18.40;95.30
72206;DHT22;60111;48.286;7.812;2022-11-02T15:01:23;18.20;96.00
72206;DHT22;60111;48.286;7.812;2022-11-02T15:03:56;18.10;96.10
72206;DHT22;60111;48.286;7.812;2022-11-02T15:06:30;18.00;95.50
72206;DHT22;60111;48.286;7.812;2022-11-02T15:09:03;17.90;96.20
72206;DHT22;60111;48.286;7.812;2022-11-02T15:11:46;17.70;96.00
72206;DHT22;60111;48.286;7.812;2022-11-02T15:22:34;17.40;97.90
72206;DHT22;60111;48.286;7.812;2022-11-02T15:25:11;17.40;97.20
72206;DHT22;60111;48.286;7.812;2022-11-02T15:27:44;17.30;98.10
72206;DHT22;60111;48.286;7.812;2022-11-02T15:30:21;17.30;98.50
72206;DHT22;60111;48.286;7.812;2022-11-02T15:33:03;17.30;99.40
72206;DHT22;60111;48.286;7.812;2022-11-02T15:35:37;17.20;98.10
72206;DHT22;60111;48.286;7.812;2022-11-02T15:38:11;17.10;98.00
72206;DHT22;60111;48.286;7.812;2022-11-02T15:41:03;17.00;98.40
72206;DHT22;60111;48.286;7.812;2022-11-02T15:43:59;16.90;98.50
72206;DHT22;60111;48.286;7.812;2022-11-02T15:52:34;16.60;99.70
72206;DHT22;60111;48.286;7.812;2022-11-02T15:55:19;16.50;99.90
72206;DHT22;60111;48.286;7.812;2022-11-02T15:57:56;16.30;99.90
72206;DHT22;60111;48.286;7.812;2022-11-02T16:00:28;16.20;99.90
72206;DHT22;60111;48.286;7.812;2022-11-02T16:03:06;16.00;99.90
72206;DHT22;60111;48.286;7.812;2022-11-02T16:05:43;15.90;99.90
72206;DHT22;60111;48.286;7.812;2022-11-02T16:08:25;15.80;99.90
72206;DHT22;60111;48.286;7.812;2022-11-02T16:11:10;15.70;99.90
72206;DHT22;60111;48.286;7.812;2022-11-02T16:13:39;15.60;99.90
72206;DHT22;60111;48.286;7.812;2022-11-02T16:16:17;15.60;99.90
72206;DHT22;60111;48.286;7.812;2022-11-02T16:18:51;15.50;99.90
72206;DHT22;60111;48.286;7.812;2022-11-02T16:21:26;15.30;99.90
72206;DHT22;60111;48.286;7.812;2022-11-02T16:23:59;15.20;99.90
72206;DHT22;60111;48.286;7.812;2022-11-02T16:26:32;15.20;99.90
72206;DHT22;60111;48.286;7.812;2022-11-02T16:29:06;15.10;99.90
72206;DHT22;60111;48.286;7.812;2022-11-02T16:31:39;14.90;99.90
72206;DHT22;60111;48.286;7.812;2022-11-02T16:34:24;14.80;99.90
72206;DHT22;60111;48.286;7.812;2022-11-02T16:37:01;14.70;99.90
72206;DHT22;60111;48.286;7.812;2022-11-02T16:39:35;14.60;99.90
72206;DHT22;60111;48.286;7.812;2022-11-02T16:42:20;14.50;99.90
72206;DHT22;60111;48.286;7.812;2022-11-02T16:44:56;14.40;99.90
72206;DHT22;60111;48.286;7.812;2022-11-02T16:47:33;14.30;99.90
72206;DHT22;60111;48.286;7.812;2022-11-02T16:50:27;14.20;99.90
72206;DHT22;60111;48.286;7.812;2022-11-02T16:52:58;14.10;99.90
72206;DHT22;60111;48.286;7.812;2022-11-02T16:58:14;13.90;99.90
72206;DHT22;60111;48.286;7.812;2022-11-02T17:00:53;13.80;99.90
72206;DHT22;60111;48.286;7.812;2022-11-02T17:03:33;13.60;99.90
72206;DHT22;60111;48.286;7.812;2022-11-02T17:06:06;13.60;99.90
72206;DHT22;60111;48.286;7.812;2022-11-02T17:08:39;13.60;99.90
72206;DHT22;60111;48.286;7.812;2022-11-02T17:11:16;13.60;99.90
72206;DHT22;60111;48.286;7.812;2022-11-02T17:13:51;13.60;99.90
72206;DHT22;60111;48.286;7.812;2022-11-02T17:16:24;13.60;99.90
72206;DHT22;60111;48.286;7.812;2022-11-02T17:18:57;13.60;99.90
72206;DHT22;60111;48.286;7.812;2022-11-02T17:21:31;13.60;99.90
72206;DHT22;60111;48.286;7.812;2022-11-02T17:24:23;13.60;99.90
72206;DHT22;60111;48.286;7.812;2022-11-02T17:26:39;13.60;99.90
72206;DHT22;60111;48.286;7.812;2022-11-02T17:31:56;13.50;99.90
72206;DHT22;60111;48.286;7.812;2022-11-02T17:34:31;13.50;99.90
72206;DHT22;60111;48.286;7.812;2022-11-02T17:37:04;13.40;99.90
72206;DHT22;60111;48.286;7.812;2022-11-02T17:39:37;13.40;99.90
72206;DHT22;60111;48.286;7.812;2022-11-02T17:42:10;13.30;99.90
72206;DHT22;60111;48.286;7.812;2022-11-02T17:45:26;13.20;99.90
72206;DHT22;60111;48.286;7.812;2022-11-02T17:48:01;13.10;99.90
72206;DHT22;60111;48.286;7.812;2022-11-02T17:50:36;12.90;99.90
72206;DHT22;60111;48.286;7.812;2022-11-02T17:53:11;12.80;99.90
72206;DHT22;60111;48.286;7.812;2022-11-02T17:55:47;12.70;99.90
72206;DHT22;60111;48.286;7.812;2022-11-02T17:58:18;12.60;99.90
72206;DHT22;60111;48.286;7.812;2022-11-02T18:00:52;12.50;99.90
72206;DHT22;60111;48.286;7.812;2022-11-02T18:03:25;12.40;99.90
72206;DHT22;60111;48.286;7.812;2022-11-02T18:05:58;12.30;99.90
72206;DHT22;60111;48.286;7.812;2022-11-02T18:08:31;12.20;99.90
72206;DHT22;60111;48.286;7.812;2022-11-02T18:11:07;12.10;99.90
72206;DHT22;60111;48.286;7.812;2022-11-02T18:13:39;12.00;99.90
72206;DHT22;60111;48.286;7.812;2022-11-02T18:16:12;11.90;99.90
72206;DHT22;60111;48.286;7.812;2022-11-02T18:18:44;11.80;99.90
72206;DHT22;60111;48.286;7.812;2022-11-02T18:21:17;11.70;99.90